Terminal Aerodrome Forecast
Issued by NWS Green Bay, WI

Home | Current Version | Previous Version | Text Only | Print | Product List | Glossary On
Versions: 1 2 3 4 5 6 7 8 9 10 11 12 13 14 15
000
FTUS43 KGRB 261127
TAFGRB
TAF
KGRB 261127Z 2612/2712 23007KT P6SM BKN250
     FM261800 24010G15KT P6SM BKN200
     FM262200 27008KT P6SM BKN150
     FM270100 32008KT P6SM BKN080 PROB30 2701/2704 -SHRA BKN050
     FM270400 34005KT P6SM SCT150=

USA.gov is the U.S. government's official web portal to all federal, state and local government web resources and services.